Larvik — C6VC2 — position and weather

sailwx.info

Track history (hours):
 
Tides and Currents Weather Stations Pressure Air Temp Water Temp Dewpoint Dewpoint Depression Visibility Wind Speed Wind Dir Waves Ship Positions

Larvik

Last reported at 2016-Dec-03 07:12 UTC. Time now 2016-Dec-07 16:23 UTC.
Position N 26°13' W 079°20'.

Length 214 m; draft 7 m.

Type: Tanker. MMSI: 308371000.

Date/timePositionNaut miles runAvg speedWind from/ knotsBaromVisibWave heightAir tempDewpointWater temp
2016-Dec-03 07:12N 26°13' W 079°20'812.6
2016-Dec-03 06:33N 26°09' W 079°28'1212.0
2016-Dec-03 05:32N 26°05' W 079°41'1111.3
2016-Dec-03 04:33N 26°06' W 079°53'1110.5
2016-Dec-03 03:33N 26°05' W 080°05'2 2.3
2016-Dec-03 02:32N 26°06' W 080°07'0 0.0
2016-Dec-03 01:32N 26°06' W 080°07'0 0.0
2016-Dec-03 00:32N 26°06' W 080°07'0 0.0
2016-Dec-02 23:32N 26°06' W 080°07'0 0.0
2016-Dec-02 22:32N 26°06' W 080°07'0 0.0
2016-Dec-02 21:32N 26°06' W 080°07'0 0.0
2016-Dec-02 20:23N 26°06' W 080°07'0 0.0
2016-Dec-02 19:26N 26°06' W 080°07'0 0.0
2016-Dec-02 18:26N 26°06' W 080°07'0 0.0
2016-Dec-02 17:26N 26°06' W 080°07'0 0.0
2016-Dec-02 16:26N 26°06' W 080°07'0 0.0
2016-Dec-02 15:29N 26°06' W 080°07'0 0.0
2016-Dec-02 14:32N 26°06' W 080°07'0 0.0
2016-Dec-02 13:32N 26°06' W 080°07'0 0.0
2016-Dec-02 12:29N 26°06' W 080°07'0 0.0
2016-Dec-02 11:29N 26°06' W 080°07'0 0.0
2016-Dec-02 10:20N 26°06' W 080°07'0 0.0
2016-Dec-02 09:32N 26°06' W 080°07'0 0.0
2016-Dec-02 08:32N 26°06' W 080°07'0 0.0
2016-Dec-02 07:32N 26°06' W 080°07'0 0.0
2016-Dec-02 06:23N 26°06' W 080°07'0 0.0
2016-Dec-02 05:26N 26°06' W 080°07'0 0.0
2016-Dec-02 04:26N 26°06' W 080°07'0 0.0
2016-Dec-02 03:23N 26°06' W 080°07'0 0.0
2016-Dec-02 02:29N 26°06' W 080°07'0 0.0
2016-Dec-02 01:29N 26°06' W 080°07'0 0.0
2016-Dec-02 00:29N 26°06' W 080°07'0 0.0
2016-Dec-01 23:32N 26°06' W 080°07'0 0.0
2016-Dec-01 22:32N 26°06' W 080°07'0 0.0
2016-Dec-01 21:32N 26°06' W 080°07'0 0.0
2016-Dec-01 20:29N 26°06' W 080°07'0 0.0
2016-Dec-01 19:20N 26°06' W 080°07'0 0.0
2016-Dec-01 18:20N 26°06' W 080°07'0 0.0
2016-Dec-01 17:05N 26°06' W 080°07'0 0.0
2016-Dec-01 16:23N 26°06' W 080°07'0 0.0
2016-Dec-01 15:26N 26°06' W 080°07'0 0.0
2016-Dec-01 14:26N 26°06' W 080°07'0 0.0
2016-Dec-01 13:29N 26°06' W 080°07'0 0.0
2016-Dec-01 12:29N 26°06' W 080°07'0 0.0
2016-Dec-01 11:29N 26°06' W 080°07'0 0.0
2016-Dec-01 10:32N 26°06' W 080°07'0 0.0
2016-Dec-01 09:32N 26°06' W 080°07'0 0.0
2016-Dec-01 08:32N 26°06' W 080°07'0 0.0
2016-Dec-01 07:32N 26°06' W 080°07'0 0.0
2016-Dec-01 06:32N 26°06' W 080°07'0 0.0
2016-Dec-01 05:32N 26°06' W 080°07'0 0.0
2016-Dec-01 04:32N 26°06' W 080°07'0 0.0
2016-Dec-01 03:23N 26°06' W 080°07'0 0.0
2016-Dec-01 02:26N 26°06' W 080°07'1 1.1
2016-Dec-01 01:33N 26°06' W 080°06'7 6.9
2016-Dec-01 00:33N 26°11' W 080°02'3 2.7
2016-Nov-30 23:33N 26°09' W 080°02'1 0.6
2016-Nov-30 22:33N 26°08' W 080°02'2 2.4
2016-Nov-30 21:33N 26°10' W 079°60'2 1.8
2016-Nov-30 20:33N 26°11' W 079°59'2 1.9
2016-Nov-30 19:34N 26°13' W 079°58'3 2.7
2016-Nov-30 18:33N 26°16' W 079°57'8 7.7
2016-Nov-30 17:33N 26°23' W 079°54'28 9.1
2016-Nov-30 14:27N 26°50' W 079°44'  
Track history (hours):
 
Tides and Currents Weather Stations Pressure Air Temp Water Temp Dewpoint Dewpoint Depression Visibility Wind Speed Wind Dir Waves Ship Positions

Larvik

Last reported at 2016-Dec-03 07:12 UTC. Time now 2016-Dec-07 16:23 UTC.
Position N 26°13' W 079°20'.

Length 214 m; draft 7 m.

Type: Tanker. MMSI: 308371000.

Date/timePositionNaut miles runAvg speedWind from/ knotsBaromVisibWave heightAir tempDewpointWater temp
2016-Dec-03 07:12N 26°13' W 079°20'812.6
2016-Dec-03 06:33N 26°09' W 079°28'1212.0
2016-Dec-03 05:32N 26°05' W 079°41'1111.3
2016-Dec-03 04:33N 26°06' W 079°53'1110.5
2016-Dec-03 03:33N 26°05' W 080°05'2 2.3
2016-Dec-03 02:32N 26°06' W 080°07'0 0.0
2016-Dec-03 01:32N 26°06' W 080°07'0 0.0
2016-Dec-03 00:32N 26°06' W 080°07'0 0.0
2016-Dec-02 23:32N 26°06' W 080°07'0 0.0
2016-Dec-02 22:32N 26°06' W 080°07'0 0.0
2016-Dec-02 21:32N 26°06' W 080°07'0 0.0
2016-Dec-02 20:23N 26°06' W 080°07'0 0.0
2016-Dec-02 19:26N 26°06' W 080°07'0 0.0
2016-Dec-02 18:26N 26°06' W 080°07'0 0.0
2016-Dec-02 17:26N 26°06' W 080°07'0 0.0
2016-Dec-02 16:26N 26°06' W 080°07'0 0.0
2016-Dec-02 15:29N 26°06' W 080°07'0 0.0
2016-Dec-02 14:32N 26°06' W 080°07'0 0.0
2016-Dec-02 13:32N 26°06' W 080°07'0 0.0
2016-Dec-02 12:29N 26°06' W 080°07'0 0.0
2016-Dec-02 11:29N 26°06' W 080°07'0 0.0
2016-Dec-02 10:20N 26°06' W 080°07'0 0.0
2016-Dec-02 09:32N 26°06' W 080°07'0 0.0
2016-Dec-02 08:32N 26°06' W 080°07'0 0.0
2016-Dec-02 07:32N 26°06' W 080°07'0 0.0
2016-Dec-02 06:23N 26°06' W 080°07'0 0.0
2016-Dec-02 05:26N 26°06' W 080°07'0 0.0
2016-Dec-02 04:26N 26°06' W 080°07'0 0.0
2016-Dec-02 03:23N 26°06' W 080°07'0 0.0
2016-Dec-02 02:29N 26°06' W 080°07'0 0.0
2016-Dec-02 01:29N 26°06' W 080°07'0 0.0
2016-Dec-02 00:29N 26°06' W 080°07'0 0.0
2016-Dec-01 23:32N 26°06' W 080°07'0 0.0
2016-Dec-01 22:32N 26°06' W 080°07'0 0.0
2016-Dec-01 21:32N 26°06' W 080°07'0 0.0
2016-Dec-01 20:29N 26°06' W 080°07'0 0.0
2016-Dec-01 19:20N 26°06' W 080°07'0 0.0
2016-Dec-01 18:20N 26°06' W 080°07'0 0.0
2016-Dec-01 17:05N 26°06' W 080°07'0 0.0
2016-Dec-01 16:23N 26°06' W 080°07'0 0.0
2016-Dec-01 15:26N 26°06' W 080°07'0 0.0
2016-Dec-01 14:26N 26°06' W 080°07'0 0.0
2016-Dec-01 13:29N 26°06' W 080°07'0 0.0
2016-Dec-01 12:29N 26°06' W 080°07'0 0.0
2016-Dec-01 11:29N 26°06' W 080°07'0 0.0
2016-Dec-01 10:32N 26°06' W 080°07'0 0.0
2016-Dec-01 09:32N 26°06' W 080°07'0 0.0
2016-Dec-01 08:32N 26°06' W 080°07'0 0.0
2016-Dec-01 07:32N 26°06' W 080°07'0 0.0
2016-Dec-01 06:32N 26°06' W 080°07'0 0.0
2016-Dec-01 05:32N 26°06' W 080°07'0 0.0
2016-Dec-01 04:32N 26°06' W 080°07'0 0.0
2016-Dec-01 03:23N 26°06' W 080°07'0 0.0
2016-Dec-01 02:26N 26°06' W 080°07'1 1.1
2016-Dec-01 01:33N 26°06' W 080°06'7 6.9
2016-Dec-01 00:33N 26°11' W 080°02'3 2.7
2016-Nov-30 23:33N 26°09' W 080°02'1 0.6
2016-Nov-30 22:33N 26°08' W 080°02'2 2.4
2016-Nov-30 21:33N 26°10' W 079°60'2 1.8
2016-Nov-30 20:33N 26°11' W 079°59'2 1.9
2016-Nov-30 19:34N 26°13' W 079°58'3 2.7
2016-Nov-30 18:33N 26°16' W 079°57'8 7.7
2016-Nov-30 17:33N 26°23' W 079°54'28 9.1
2016-Nov-30 14:27N 26°50' W 079°44'  

Dump ship's entire track history